createdAt,value
2023-02-27T00:02:23.812Z,65.26
2023-02-27T00:05:42.612Z,65.34
2023-02-27T00:08:47.895Z,65.12
2023-02-27T00:11:52.890Z,64.57
2023-02-27T00:14:55.710Z,65.31
2023-02-27T00:17:59.629Z,64.55
2023-02-27T00:21:02.552Z,65.48
2023-02-27T00:24:05.570Z,65.06
2023-02-27T00:27:08.280Z,65.55
2023-02-27T00:30:15.752Z,65.25
2023-02-27T00:33:18.739Z,65.33
2023-02-27T00:36:26.292Z,65.41
2023-02-27T00:39:33.451Z,66.36
2023-02-27T00:42:36.408Z,65.42
2023-02-27T00:45:46.710Z,65.36
2023-02-27T00:48:54.485Z,65.52
2023-02-27T00:51:58.550Z,65.41
2023-02-27T00:55:01.268Z,67.50
2023-02-27T00:58:04.182Z,65.24
2023-02-27T01:01:06.848Z,64.57
2023-02-27T01:04:09.725Z,65.17
2023-02-27T01:07:13.297Z,66.31
2023-02-27T01:10:18.403Z,65.40
2023-02-27T01:13:21.127Z,64.14
2023-02-27T01:16:24.398Z,64.78
2023-02-27T01:19:27.311Z,65.01
2023-02-27T01:22:30.036Z,65.29
2023-02-27T01:25:32.493Z,65.17
2023-02-27T01:28:35.304Z,65.83
2023-02-27T01:31:37.779Z,64.92
2023-02-27T01:34:42.760Z,65.79
2023-02-27T01:37:47.482Z,64.72
2023-02-27T01:44:31.549Z,64.33
2023-02-27T01:47:34.611Z,64.29
2023-02-27T01:50:42.210Z,64.29
2023-02-27T01:53:51.229Z,64.05
2023-02-27T01:56:56.704Z,65.20
2023-02-27T01:59:59.481Z,64.40
2023-02-27T02:03:22.150Z,64.42
2023-02-27T02:06:32.273Z,62.83
2023-02-27T02:09:40.154Z,63.96
2023-02-27T02:12:45.489Z,62.21
2023-02-27T02:16:15.400Z,62.36
2023-02-27T02:19:51.070Z,62.94
2023-02-27T02:23:50.946Z,62.91
2023-02-27T02:27:09.458Z,61.97
2023-02-27T02:30:44.454Z,62.41
2023-02-27T02:34:16.938Z,63.37
2023-02-27T02:37:51.776Z,62.47
2023-02-27T02:41:01.290Z,62.96
2023-02-27T02:44:25.616Z,63.17
2023-02-27T02:47:46.650Z,62.96
2023-02-27T02:51:11.517Z,63.79
2023-02-27T02:54:21.588Z,62.38
2023-02-27T02:57:35.639Z,62.16
2023-02-27T03:00:51.382Z,62.80
2023-02-27T03:04:07.469Z,62.82
2023-02-27T03:07:22.559Z,62.14
2023-02-27T03:10:44.248Z,63.03
2023-02-27T03:14:06.184Z,61.64
2023-02-27T03:17:20.307Z,63.34
2023-02-27T03:20:29.446Z,62.61
2023-02-27T03:23:42.975Z,61.83
2023-02-27T03:26:51.563Z,62.67
2023-02-27T03:30:00.560Z,63.27
2023-02-27T03:33:17.210Z,62.33
2023-02-27T03:36:50.019Z,62.13
2023-02-27T03:40:06.721Z,62.88
2023-02-27T03:43:24.832Z,63.38
2023-02-27T03:46:30.138Z,62.92
2023-02-27T03:49:33.311Z,63.93
2023-02-27T03:52:35.895Z,62.93
2023-02-27T03:55:45.919Z,64.02
2023-02-27T03:58:48.469Z,63.02
2023-02-27T04:01:55.575Z,61.73
2023-02-27T04:04:58.663Z,62.63
2023-02-27T04:08:16.441Z,62.60
2023-02-27T04:11:45.238Z,62.75
2023-02-27T04:14:56.231Z,62.56
2023-02-27T04:18:20.166Z,63.19
2023-02-27T04:21:34.801Z,62.67
2023-02-27T04:25:15.471Z,62.81
2023-02-27T04:28:45.713Z,63.09
2023-02-27T04:31:50.953Z,62.88
2023-02-27T04:35:04.052Z,63.27
2023-02-27T04:38:21.680Z,62.48
2023-02-27T04:41:32.841Z,63.28
2023-02-27T04:44:38.630Z,63.48
2023-02-27T04:47:48.779Z,64.04
2023-02-27T04:51:00.364Z,63.13
2023-02-27T04:54:11.012Z,64.75
2023-02-27T04:57:19.899Z,62.71
2023-02-27T05:00:26.785Z,61.67
2023-02-27T05:03:35.587Z,61.97
2023-02-27T05:06:41.586Z,61.82
2023-02-27T05:09:52.351Z,62.57
2023-02-27T05:12:59.629Z,62.16
2023-02-27T05:16:20.415Z,62.06
2023-02-27T05:19:33.926Z,63.39
2023-02-27T05:22:53.588Z,62.52
2023-02-27T05:26:02.341Z,61.59
2023-02-27T05:29:28.124Z,62.18
2023-02-27T05:32:33.928Z,61.84
2023-02-27T05:35:52.376Z,62.54
2023-02-27T05:39:00.091Z,62.04
2023-02-27T05:42:12.018Z,61.33
2023-02-27T05:45:20.372Z,62.61
2023-02-27T05:48:30.426Z,61.26
2023-02-27T05:51:35.830Z,61.63
2023-02-27T05:54:44.730Z,62.77
2023-02-27T05:58:01.449Z,62.21
2023-02-27T06:01:07.273Z,61.51
2023-02-27T06:04:10.238Z,61.78
2023-02-27T06:07:14.864Z,63.34
2023-02-27T06:10:19.680Z,59.89
2023-02-27T06:13:23.918Z,60.70
2023-02-27T06:16:27.158Z,60.67
2023-02-27T06:19:29.787Z,58.82
2023-02-27T06:22:33.399Z,59.26
2023-02-27T06:25:35.906Z,59.42
2023-02-27T06:28:38.825Z,59.58
2023-02-27T06:31:41.261Z,60.30
2023-02-27T06:34:46.127Z,60.34
2023-02-27T06:37:51.064Z,60.99
2023-02-27T06:40:56.317Z,59.47
2023-02-27T06:43:58.801Z,59.24
2023-02-27T06:47:01.540Z,59.53
2023-02-27T06:50:11.294Z,59.30
2023-02-27T06:53:14.016Z,59.31
2023-02-27T06:56:16.478Z,58.85
2023-02-27T06:59:19.212Z,58.50
2023-02-27T07:02:23.875Z,57.81
2023-02-27T07:05:26.643Z,58.14
2023-02-27T07:08:29.298Z,57.63
2023-02-27T07:11:32.042Z,57.87
2023-02-27T07:14:36.602Z,56.75
2023-02-27T07:17:39.677Z,57.43
2023-02-27T07:20:42.884Z,58.67
2023-02-27T07:23:45.740Z,57.28
2023-02-27T07:26:48.384Z,56.57
2023-02-27T07:29:51.107Z,57.29
2023-02-27T07:32:53.643Z,56.93
2023-02-27T07:35:56.478Z,57.93
2023-02-27T07:38:59.529Z,58.23
2023-02-27T07:42:05.248Z,56.51
2023-02-27T07:45:11.562Z,57.46
2023-02-27T07:48:14.327Z,57.17
2023-02-27T07:51:16.833Z,56.99
2023-02-27T07:54:22.105Z,56.99
2023-02-27T07:57:26.892Z,57.22
2023-02-27T08:00:29.813Z,56.55
2023-02-27T08:03:32.749Z,56.04
2023-02-27T08:06:35.230Z,56.27
2023-02-27T08:09:38.118Z,56.39
2023-02-27T08:12:40.775Z,55.25
2023-02-27T08:15:43.573Z,55.07
2023-02-27T08:18:46.043Z,55.48
2023-02-27T08:21:51.554Z,54.20
2023-02-27T08:24:54.095Z,53.99
2023-02-27T08:27:56.951Z,53.65
2023-02-27T08:31:01.642Z,53.78
2023-02-27T08:34:10.205Z,53.51
2023-02-27T08:37:13.255Z,53.37
2023-02-27T08:40:17.163Z,53.28
2023-02-27T08:43:26.163Z,52.91
2023-02-27T08:46:29.285Z,51.87
2023-02-27T08:49:32.178Z,51.52
2023-02-27T08:52:35.061Z,52.24
2023-02-27T08:55:37.740Z,52.84
2023-02-27T08:58:42.687Z,51.20
2023-02-27T09:01:47.764Z,50.48
2023-02-27T09:04:50.533Z,49.85
2023-02-27T09:07:53.211Z,50.07
2023-02-27T09:10:57.287Z,49.97
2023-02-27T09:13:59.818Z,50.85
2023-02-27T09:17:06.522Z,51.00
2023-02-27T09:20:10.788Z,51.57
2023-02-27T09:23:13.528Z,51.13
2023-02-27T09:26:17.140Z,51.72
2023-02-27T09:29:23.911Z,51.02
2023-02-27T09:32:27.206Z,51.81
2023-02-27T09:35:32.284Z,52.21
2023-02-27T09:38:40.983Z,51.19
2023-02-27T09:42:09.874Z,50.19
2023-02-27T09:45:24.863Z,50.34
2023-02-27T09:52:51.061Z,51.19
2023-02-27T09:56:00.890Z,49.94
2023-02-27T09:59:22.330Z,50.64
2023-02-27T10:02:44.183Z,49.88
2023-02-27T10:06:17.375Z,49.64
2023-02-27T10:09:33.521Z,50.40
2023-02-27T10:13:10.936Z,49.81
2023-02-27T10:16:22.037Z,49.68
2023-02-27T10:19:39.770Z,49.37
2023-02-27T10:22:50.617Z,49.01
